Portada
METAR-TAF:

METAR-TAF

Aeroports :

Phillip Goldston

Belize City, Belize

latitud: 17-32N, longitud: 088-18W, altitud: 5 m

Observació

L'informe es va fer fa 13 minuts, a les 18:00 UTC
Vent 5 kt del Oest
Temperatura 30°C
Humitat 79%
Pressió 1009 hPa
Visibilitat 10 km o més
Núvols disperses a una alçada de 2700 ft
Núvols disperses a una alçada de 4500 ft

METAR: MZBZ 211800Z 26005KT 9999 SCT027 SCT045 30/26 A2981 Q1009 NOSIG

Hora: 12:13 (18:13 UTC)

Pronòstic

L'informe es va fer fa 3 hores i 13 minuts, a les 15:00 UTC
Pronòstic vàlid del 21 a les 18 UTC al 22 a les 18 UTC
Vent 7 kt del Oest
Visibilitat 10 km o més
Núvols disperses a una alçada de 2400 ft

TAF: MZBZ 211500Z 2118/2218 27007KT 9999 SCT024

Observacions i pronòstics meteorològics de més de 4000 aeroports (METAR i TAF).

Les estacions disponibles són els punts grocs i vermells al mapa.

Posi el ratolí al punt desitjat per veure el nom de l'estació.

Feu clic per veure les observacions i els pronòstics meteorològics.

Per canviar el mapa: feu clic els botons verds amb una creu de color negre per apropar; al botó verd amb un guió per allunyar la imatge; o en les fletxes verdes per a mapes adjacents.


METAR-TAF: